sensor_id;sensor_type;location;lat;lon;timestamp;P1;durP1;ratioP1;P2;durP2;ratioP2
24743;SDS011;12844;52.110;5.548;2024-01-25T00:00:30;6.50;;;2.00;;
24743;SDS011;12844;52.110;5.548;2024-01-25T00:02:55;6.63;;;2.30;;
24743;SDS011;12844;52.110;5.548;2024-01-25T00:05:21;7.18;;;1.98;;
24743;SDS011;12844;52.110;5.548;2024-01-25T00:07:49;6.38;;;2.05;;
24743;SDS011;12844;52.110;5.548;2024-01-25T00:10:16;7.15;;;2.25;;
24743;SDS011;12844;52.110;5.548;2024-01-25T00:12:42;4.93;;;1.85;;
24743;SDS011;12844;52.110;5.548;2024-01-25T00:15:08;6.47;;;2.33;;
24743;SDS011;12844;52.110;5.548;2024-01-25T00:17:35;5.47;;;2.20;;
24743;SDS011;12844;52.110;5.548;2024-01-25T00:20:00;6.03;;;1.90;;
24743;SDS011;12844;52.110;5.548;2024-01-25T00:22:26;5.80;;;1.90;;
24743;SDS011;12844;52.110;5.548;2024-01-25T00:24:52;7.65;;;2.15;;
24743;SDS011;12844;52.110;5.548;2024-01-25T00:27:17;5.72;;;2.33;;
24743;SDS011;12844;52.110;5.548;2024-01-25T00:29:43;8.30;;;2.08;;
24743;SDS011;12844;52.110;5.548;2024-01-25T00:37:19;6.88;;;1.98;;
24743;SDS011;12844;52.110;5.548;2024-01-25T00:39:45;5.72;;;1.92;;
24743;SDS011;12844;52.110;5.548;2024-01-25T00:42:12;5.82;;;1.55;;
24743;SDS011;12844;52.110;5.548;2024-01-25T00:44:39;7.82;;;1.98;;
24743;SDS011;12844;52.110;5.548;2024-01-25T00:47:05;6.78;;;2.00;;
24743;SDS011;12844;52.110;5.548;2024-01-25T00:49:31;4.53;;;1.60;;
24743;SDS011;12844;52.110;5.548;2024-01-25T01:07:29;6.57;;;1.80;;
24743;SDS011;12844;52.110;5.548;2024-01-25T01:09:55;5.75;;;1.90;;
24743;SDS011;12844;52.110;5.548;2024-01-25T01:12:21;7.43;;;2.00;;
24743;SDS011;12844;52.110;5.548;2024-01-25T01:14:46;6.38;;;2.00;;
24743;SDS011;12844;52.110;5.548;2024-01-25T01:17:13;5.20;;;1.75;;
24743;SDS011;12844;52.110;5.548;2024-01-25T01:19:38;7.35;;;2.13;;
24743;SDS011;12844;52.110;5.548;2024-01-25T01:42:47;6.25;;;2.15;;
24743;SDS011;12844;52.110;5.548;2024-01-25T01:45:12;4.82;;;1.45;;
24743;SDS011;12844;52.110;5.548;2024-01-25T01:47:38;5.70;;;1.98;;
24743;SDS011;12844;52.110;5.548;2024-01-25T01:50:05;5.55;;;1.58;;
24743;SDS011;12844;52.110;5.548;2024-01-25T01:52:31;6.32;;;2.22;;
24743;SDS011;12844;52.110;5.548;2024-01-25T01:54:57;5.30;;;1.83;;
24743;SDS011;12844;52.110;5.548;2024-01-25T01:57:23;7.65;;;2.08;;
24743;SDS011;12844;52.110;5.548;2024-01-25T01:59:49;5.22;;;1.95;;
24743;SDS011;12844;52.110;5.548;2024-01-25T02:02:15;4.95;;;1.63;;
24743;SDS011;12844;52.110;5.548;2024-01-25T02:04:42;5.63;;;1.58;;
24743;SDS011;12844;52.110;5.548;2024-01-25T02:07:08;6.45;;;1.80;;
24743;SDS011;12844;52.110;5.548;2024-01-25T02:09:34;7.70;;;1.80;;
24743;SDS011;12844;52.110;5.548;2024-01-25T02:12:03;6.35;;;2.00;;
24743;SDS011;12844;52.110;5.548;2024-01-25T02:14:30;6.03;;;2.40;;
24743;SDS011;12844;52.110;5.548;2024-01-25T02:16:56;6.28;;;1.63;;
24743;SDS011;12844;52.110;5.548;2024-01-25T02:19:21;5.50;;;1.83;;
24743;SDS011;12844;52.110;5.548;2024-01-25T02:21:47;5.18;;;1.58;;
24743;SDS011;12844;52.110;5.548;2024-01-25T02:24:16;6.47;;;1.85;;
24743;SDS011;12844;52.110;5.548;2024-01-25T02:26:41;5.85;;;1.75;;
24743;SDS011;12844;52.110;5.548;2024-01-25T02:29:07;5.30;;;1.73;;
24743;SDS011;12844;52.110;5.548;2024-01-25T02:31:34;5.15;;;2.05;;
24743;SDS011;12844;52.110;5.548;2024-01-25T02:34:00;4.85;;;1.50;;
24743;SDS011;12844;52.110;5.548;2024-01-25T02:36:26;6.57;;;1.95;;
24743;SDS011;12844;52.110;5.548;2024-01-25T02:38:51;4.70;;;1.80;;
24743;SDS011;12844;52.110;5.548;2024-01-25T02:41:17;7.00;;;2.08;;
24743;SDS011;12844;52.110;5.548;2024-01-25T02:43:42;5.05;;;1.65;;
24743;SDS011;12844;52.110;5.548;2024-01-25T02:46:08;5.45;;;1.67;;
24743;SDS011;12844;52.110;5.548;2024-01-25T02:48:34;5.75;;;2.03;;
24743;SDS011;12844;52.110;5.548;2024-01-25T02:51:00;5.25;;;1.75;;
24743;SDS011;12844;52.110;5.548;2024-01-25T02:53:26;6.07;;;1.90;;
24743;SDS011;12844;52.110;5.548;2024-01-25T02:55:52;4.32;;;1.45;;
24743;SDS011;12844;52.110;5.548;2024-01-25T02:58:17;4.72;;;1.58;;
24743;SDS011;12844;52.110;5.548;2024-01-25T03:00:43;3.30;;;1.33;;
24743;SDS011;12844;52.110;5.548;2024-01-25T03:03:08;4.82;;;1.60;;
24743;SDS011;12844;52.110;5.548;2024-01-25T03:05:34;5.30;;;1.50;;
24743;SDS011;12844;52.110;5.548;2024-01-25T03:08:00;4.43;;;1.77;;
24743;SDS011;12844;52.110;5.548;2024-01-25T03:10:25;4.85;;;1.70;;
24743;SDS011;12844;52.110;5.548;2024-01-25T03:12:51;5.55;;;1.73;;
24743;SDS011;12844;52.110;5.548;2024-01-25T03:15:17;5.88;;;1.83;;
24743;SDS011;12844;52.110;5.548;2024-01-25T03:17:42;5.10;;;1.73;;
24743;SDS011;12844;52.110;5.548;2024-01-25T03:20:08;6.03;;;1.80;;
24743;SDS011;12844;52.110;5.548;2024-01-25T03:22:34;4.68;;;1.65;;
24743;SDS011;12844;52.110;5.548;2024-01-25T03:25:00;3.58;;;1.40;;
24743;SDS011;12844;52.110;5.548;2024-01-25T03:27:26;4.85;;;1.67;;
24743;SDS011;12844;52.110;5.548;2024-01-25T03:29:51;5.28;;;1.65;;
24743;SDS011;12844;52.110;5.548;2024-01-25T03:32:17;6.50;;;1.75;;
24743;SDS011;12844;52.110;5.548;2024-01-25T03:34:42;5.53;;;1.77;;
24743;SDS011;12844;52.110;5.548;2024-01-25T03:37:08;5.63;;;1.92;;
24743;SDS011;12844;52.110;5.548;2024-01-25T03:39:34;5.38;;;1.88;;
24743;SDS011;12844;52.110;5.548;2024-01-25T03:42:00;4.70;;;1.85;;
24743;SDS011;12844;52.110;5.548;2024-01-25T03:44:26;3.97;;;1.70;;
24743;SDS011;12844;52.110;5.548;2024-01-25T03:46:51;6.10;;;1.60;;
24743;SDS011;12844;52.110;5.548;2024-01-25T03:49:17;5.35;;;1.88;;
24743;SDS011;12844;52.110;5.548;2024-01-25T03:51:43;4.75;;;1.95;;
24743;SDS011;12844;52.110;5.548;2024-01-25T03:54:09;3.92;;;1.42;;
24743;SDS011;12844;52.110;5.548;2024-01-25T03:56:35;6.13;;;1.88;;
24743;SDS011;12844;52.110;5.548;2024-01-25T03:59:00;4.70;;;1.77;;
24743;SDS011;12844;52.110;5.548;2024-01-25T04:01:26;4.05;;;1.40;;
24743;SDS011;12844;52.110;5.548;2024-01-25T04:03:51;4.78;;;1.73;;
24743;SDS011;12844;52.110;5.548;2024-01-25T04:06:17;6.80;;;1.60;;
24743;SDS011;12844;52.110;5.548;2024-01-25T04:08:42;4.80;;;1.58;;
24743;SDS011;12844;52.110;5.548;2024-01-25T04:11:08;3.97;;;1.55;;
24743;SDS011;12844;52.110;5.548;2024-01-25T04:13:34;7.40;;;1.80;;
24743;SDS011;12844;52.110;5.548;2024-01-25T04:16:00;6.13;;;1.85;;
24743;SDS011;12844;52.110;5.548;2024-01-25T04:18:26;4.57;;;1.48;;
24743;SDS011;12844;52.110;5.548;2024-01-25T04:20:51;3.80;;;1.23;;
24743;SDS011;12844;52.110;5.548;2024-01-25T04:23:17;5.43;;;1.55;;
24743;SDS011;12844;52.110;5.548;2024-01-25T04:25:43;5.28;;;1.45;;
24743;SDS011;12844;52.110;5.548;2024-01-25T04:28:09;4.25;;;1.60;;
24743;SDS011;12844;52.110;5.548;2024-01-25T04:30:34;5.78;;;1.85;;
24743;SDS011;12844;52.110;5.548;2024-01-25T04:33:00;4.65;;;1.60;;
24743;SDS011;12844;52.110;5.548;2024-01-25T04:35:26;5.75;;;1.60;;
24743;SDS011;12844;52.110;5.548;2024-01-25T04:37:52;4.43;;;1.70;;
24743;SDS011;12844;52.110;5.548;2024-01-25T04:40:18;3.92;;;1.60;;
24743;SDS011;12844;52.110;5.548;2024-01-25T04:42:44;4.97;;;1.73;;
24743;SDS011;12844;52.110;5.548;2024-01-25T04:45:09;5.32;;;1.55;;
24743;SDS011;12844;52.110;5.548;2024-01-25T04:47:37;4.95;;;1.60;;
24743;SDS011;12844;52.110;5.548;2024-01-25T04:50:03;6.28;;;1.58;;
24743;SDS011;12844;52.110;5.548;2024-01-25T04:52:29;4.53;;;1.50;;
24743;SDS011;12844;52.110;5.548;2024-01-25T04:54:55;5.13;;;1.77;;
24743;SDS011;12844;52.110;5.548;2024-01-25T04:57:20;4.78;;;1.52;;
24743;SDS011;12844;52.110;5.548;2024-01-25T04:59:46;6.80;;;1.63;;
24743;SDS011;12844;52.110;5.548;2024-01-25T05:02:11;5.07;;;1.42;;
24743;SDS011;12844;52.110;5.548;2024-01-25T05:04:37;5.57;;;1.50;;
24743;SDS011;12844;52.110;5.548;2024-01-25T05:07:03;5.50;;;1.38;;
24743;SDS011;12844;52.110;5.548;2024-01-25T05:09:28;4.85;;;2.13;;
24743;SDS011;12844;52.110;5.548;2024-01-25T05:11:54;5.15;;;1.45;;
24743;SDS011;12844;52.110;5.548;2024-01-25T05:14:23;5.53;;;1.42;;
24743;SDS011;12844;52.110;5.548;2024-01-25T05:16:49;5.70;;;1.58;;
24743;SDS011;12844;52.110;5.548;2024-01-25T05:19:15;6.05;;;1.77;;
24743;SDS011;12844;52.110;5.548;2024-01-25T05:21:40;6.60;;;2.03;;
24743;SDS011;12844;52.110;5.548;2024-01-25T05:24:06;4.20;;;1.60;;
24743;SDS011;12844;52.110;5.548;2024-01-25T05:26:32;5.40;;;1.77;;
24743;SDS011;12844;52.110;5.548;2024-01-25T05:28:58;6.35;;;1.55;;
24743;SDS011;12844;52.110;5.548;2024-01-25T05:31:23;4.45;;;1.30;;
24743;SDS011;12844;52.110;5.548;2024-01-25T05:33:49;4.70;;;1.65;;
24743;SDS011;12844;52.110;5.548;2024-01-25T05:36:14;5.18;;;1.40;;
24743;SDS011;12844;52.110;5.548;2024-01-25T05:38:40;4.78;;;1.40;;
24743;SDS011;12844;52.110;5.548;2024-01-25T05:41:06;5.47;;;1.58;;
24743;SDS011;12844;52.110;5.548;2024-01-25T05:43:32;5.35;;;1.60;;
24743;SDS011;12844;52.110;5.548;2024-01-25T05:45:58;6.60;;;1.75;;
24743;SDS011;12844;52.110;5.548;2024-01-25T05:48:23;4.07;;;1.45;;
24743;SDS011;12844;52.110;5.548;2024-01-25T05:50:49;4.63;;;1.60;;
24743;SDS011;12844;52.110;5.548;2024-01-25T05:53:15;4.30;;;1.75;;
24743;SDS011;12844;52.110;5.548;2024-01-25T05:55:44;3.70;;;1.20;;
24743;SDS011;12844;52.110;5.548;2024-01-25T05:58:09;5.60;;;1.75;;
24743;SDS011;12844;52.110;5.548;2024-01-25T06:00:35;7.95;;;1.90;;
24743;SDS011;12844;52.110;5.548;2024-01-25T06:03:00;3.90;;;1.52;;
24743;SDS011;12844;52.110;5.548;2024-01-25T06:05:26;4.72;;;1.50;;
24743;SDS011;12844;52.110;5.548;2024-01-25T06:07:51;4.80;;;1.63;;
24743;SDS011;12844;52.110;5.548;2024-01-25T06:10:17;3.78;;;1.40;;
24743;SDS011;12844;52.110;5.548;2024-01-25T06:12:43;6.13;;;1.58;;
24743;SDS011;12844;52.110;5.548;2024-01-25T06:15:08;4.28;;;1.40;;
24743;SDS011;12844;52.110;5.548;2024-01-25T06:17:34;4.45;;;1.60;;
24743;SDS011;12844;52.110;5.548;2024-01-25T06:20:00;5.72;;;1.73;;
24743;SDS011;12844;52.110;5.548;2024-01-25T06:22:25;4.82;;;1.20;;
24743;SDS011;12844;52.110;5.548;2024-01-25T06:24:51;4.65;;;1.60;;
24743;SDS011;12844;52.110;5.548;2024-01-25T06:27:16;4.28;;;1.38;;
24743;SDS011;12844;52.110;5.548;2024-01-25T06:29:42;4.50;;;1.45;;
24743;SDS011;12844;52.110;5.548;2024-01-25T06:32:08;4.93;;;1.60;;
24743;SDS011;12844;52.110;5.548;2024-01-25T06:34:34;4.28;;;1.52;;
24743;SDS011;12844;52.110;5.548;2024-01-25T06:37:00;5.30;;;2.10;;
24743;SDS011;12844;52.110;5.548;2024-01-25T06:39:26;4.82;;;1.58;;
24743;SDS011;12844;52.110;5.548;2024-01-25T06:41:51;4.15;;;1.58;;
24743;SDS011;12844;52.110;5.548;2024-01-25T06:44:17;4.53;;;1.45;;
24743;SDS011;12844;52.110;5.548;2024-01-25T06:46:42;4.00;;;1.40;;
24743;SDS011;12844;52.110;5.548;2024-01-25T06:49:08;4.90;;;1.42;;
24743;SDS011;12844;52.110;5.548;2024-01-25T06:51:34;5.15;;;1.42;;
24743;SDS011;12844;52.110;5.548;2024-01-25T06:53:59;5.60;;;1.50;;
24743;SDS011;12844;52.110;5.548;2024-01-25T06:56:25;4.60;;;1.33;;
24743;SDS011;12844;52.110;5.548;2024-01-25T06:58:51;5.65;;;1.65;;
24743;SDS011;12844;52.110;5.548;2024-01-25T07:01:22;4.43;;;1.63;;
24743;SDS011;12844;52.110;5.548;2024-01-25T07:03:48;3.97;;;1.30;;
24743;SDS011;12844;52.110;5.548;2024-01-25T07:06:17;3.45;;;1.60;;
24743;SDS011;12844;52.110;5.548;2024-01-25T07:08:43;4.85;;;1.50;;
24743;SDS011;12844;52.110;5.548;2024-01-25T07:11:09;5.80;;;1.60;;
24743;SDS011;12844;52.110;5.548;2024-01-25T07:13:35;5.85;;;1.58;;
24743;SDS011;12844;52.110;5.548;2024-01-25T07:16:01;5.53;;;1.60;;
24743;SDS011;12844;52.110;5.548;2024-01-25T07:18:26;4.07;;;1.13;;
24743;SDS011;12844;52.110;5.548;2024-01-25T07:20:52;3.17;;;1.30;;
24743;SDS011;12844;52.110;5.548;2024-01-25T07:23:17;6.03;;;1.55;;
24743;SDS011;12844;52.110;5.548;2024-01-25T07:25:43;5.70;;;1.30;;
24743;SDS011;12844;52.110;5.548;2024-01-25T07:28:09;4.20;;;1.10;;
24743;SDS011;12844;52.110;5.548;2024-01-25T07:30:34;3.85;;;1.30;;
24743;SDS011;12844;52.110;5.548;2024-01-25T07:33:00;4.35;;;1.40;;
24743;SDS011;12844;52.110;5.548;2024-01-25T07:35:26;5.07;;;1.40;;
24743;SDS011;12844;52.110;5.548;2024-01-25T07:37:52;5.78;;;1.90;;
24743;SDS011;12844;52.110;5.548;2024-01-25T07:40:17;3.10;;;1.27;;
24743;SDS011;12844;52.110;5.548;2024-01-25T07:42:43;5.55;;;1.90;;
24743;SDS011;12844;52.110;5.548;2024-01-25T07:45:08;4.28;;;1.20;;
24743;SDS011;12844;52.110;5.548;2024-01-25T07:47:34;3.72;;;1.17;;
24743;SDS011;12844;52.110;5.548;2024-01-25T07:50:00;5.53;;;1.83;;
24743;SDS011;12844;52.110;5.548;2024-01-25T07:52:26;5.10;;;1.90;;
24743;SDS011;12844;52.110;5.548;2024-01-25T07:54:51;5.03;;;2.03;;
24743;SDS011;12844;52.110;5.548;2024-01-25T07:57:18;4.65;;;1.70;;
24743;SDS011;12844;52.110;5.548;2024-01-25T07:59:44;7.00;;;2.45;;
24743;SDS011;12844;52.110;5.548;2024-01-25T08:02:10;5.45;;;2.13;;
24743;SDS011;12844;52.110;5.548;2024-01-25T08:04:35;5.88;;;2.45;;
24743;SDS011;12844;52.110;5.548;2024-01-25T08:07:01;5.18;;;1.95;;
24743;SDS011;12844;52.110;5.548;2024-01-25T08:09:27;6.45;;;2.60;;
24743;SDS011;12844;52.110;5.548;2024-01-25T08:11:53;7.05;;;1.95;;
24743;SDS011;12844;52.110;5.548;2024-01-25T08:14:18;6.38;;;2.03;;
24743;SDS011;12844;52.110;5.548;2024-01-25T08:16:44;6.10;;;2.25;;
24743;SDS011;12844;52.110;5.548;2024-01-25T08:19:09;10.02;;;2.00;;
24743;SDS011;12844;52.110;5.548;2024-01-25T08:21:35;6.85;;;1.83;;
24743;SDS011;12844;52.110;5.548;2024-01-25T08:24:01;6.85;;;2.05;;
24743;SDS011;12844;52.110;5.548;2024-01-25T08:26:27;4.65;;;1.77;;
24743;SDS011;12844;52.110;5.548;2024-01-25T08:28:53;6.47;;;2.40;;
24743;SDS011;12844;52.110;5.548;2024-01-25T08:31:18;6.25;;;2.00;;
24743;SDS011;12844;52.110;5.548;2024-01-25T08:33:44;5.22;;;2.10;;
24743;SDS011;12844;52.110;5.548;2024-01-25T08:36:12;5.13;;;1.88;;
24743;SDS011;12844;52.110;5.548;2024-01-25T08:38:41;5.00;;;1.85;;
24743;SDS011;12844;52.110;5.548;2024-01-25T08:41:07;5.40;;;1.90;;
24743;SDS011;12844;52.110;5.548;2024-01-25T08:43:32;7.13;;;1.88;;
24743;SDS011;12844;52.110;5.548;2024-01-25T08:45:58;7.43;;;2.10;;
24743;SDS011;12844;52.110;5.548;2024-01-25T08:48:24;6.05;;;2.05;;
24743;SDS011;12844;52.110;5.548;2024-01-25T08:50:50;6.15;;;1.77;;
24743;SDS011;12844;52.110;5.548;2024-01-25T08:53:18;5.93;;;1.92;;
24743;SDS011;12844;52.110;5.548;2024-01-25T08:55:46;7.47;;;2.30;;
24743;SDS011;12844;52.110;5.548;2024-01-25T08:58:11;7.45;;;2.20;;
24743;SDS011;12844;52.110;5.548;2024-01-25T09:00:37;5.43;;;1.80;;
24743;SDS011;12844;52.110;5.548;2024-01-25T09:03:03;5.05;;;1.83;;
24743;SDS011;12844;52.110;5.548;2024-01-25T09:05:28;6.13;;;1.60;;
24743;SDS011;12844;52.110;5.548;2024-01-25T09:07:56;3.88;;;1.88;;
24743;SDS011;12844;52.110;5.548;2024-01-25T09:10:21;6.63;;;1.98;;
24743;SDS011;12844;52.110;5.548;2024-01-25T09:12:47;6.45;;;1.80;;
24743;SDS011;12844;52.110;5.548;2024-01-25T09:15:12;5.82;;;2.08;;
24743;SDS011;12844;52.110;5.548;2024-01-25T09:17:38;5.05;;;2.20;;
24743;SDS011;12844;52.110;5.548;2024-01-25T09:20:05;6.68;;;2.13;;
24743;SDS011;12844;52.110;5.548;2024-01-25T09:22:31;6.35;;;2.60;;
24743;SDS011;12844;52.110;5.548;2024-01-25T09:24:57;5.07;;;1.83;;
24743;SDS011;12844;52.110;5.548;2024-01-25T09:27:23;6.07;;;2.03;;
24743;SDS011;12844;52.110;5.548;2024-01-25T09:29:48;5.78;;;2.05;;
24743;SDS011;12844;52.110;5.548;2024-01-25T09:32:14;7.63;;;2.03;;
24743;SDS011;12844;52.110;5.548;2024-01-25T09:34:39;7.43;;;2.05;;
24743;SDS011;12844;52.110;5.548;2024-01-25T09:37:05;4.78;;;2.20;;
24743;SDS011;12844;52.110;5.548;2024-01-25T09:39:31;6.07;;;1.70;;
24743;SDS011;12844;52.110;5.548;2024-01-25T09:41:57;5.88;;;2.00;;
24743;SDS011;12844;52.110;5.548;2024-01-25T09:44:22;5.88;;;1.80;;
24743;SDS011;12844;52.110;5.548;2024-01-25T09:46:48;5.13;;;1.83;;
24743;SDS011;12844;52.110;5.548;2024-01-25T09:49:16;7.45;;;2.10;;
24743;SDS011;12844;52.110;5.548;2024-01-25T09:51:42;4.43;;;1.92;;
24743;SDS011;12844;52.110;5.548;2024-01-25T09:54:08;5.32;;;2.00;;
24743;SDS011;12844;52.110;5.548;2024-01-25T09:56:34;5.80;;;2.45;;
24743;SDS011;12844;52.110;5.548;2024-01-25T09:59:00;5.72;;;2.20;;
24743;SDS011;12844;52.110;5.548;2024-01-25T10:01:27;5.15;;;1.85;;
24743;SDS011;12844;52.110;5.548;2024-01-25T10:03:53;3.92;;;1.58;;
24743;SDS011;12844;52.110;5.548;2024-01-25T10:06:21;6.68;;;1.80;;
24743;SDS011;12844;52.110;5.548;2024-01-25T10:08:47;6.63;;;2.05;;
24743;SDS011;12844;52.110;5.548;2024-01-25T10:11:13;6.68;;;2.08;;
24743;SDS011;12844;52.110;5.548;2024-01-25T10:13:46;5.97;;;2.05;;
24743;SDS011;12844;52.110;5.548;2024-01-25T10:16:16;4.50;;;2.08;;
24743;SDS011;12844;52.110;5.548;2024-01-25T10:18:44;5.45;;;2.10;;
24743;SDS011;12844;52.110;5.548;2024-01-25T10:21:12;5.53;;;2.00;;
24743;SDS011;12844;52.110;5.548;2024-01-25T10:23:39;6.47;;;1.88;;
24743;SDS011;12844;52.110;5.548;2024-01-25T10:26:05;6.88;;;2.13;;
24743;SDS011;12844;52.110;5.548;2024-01-25T10:28:33;8.50;;;1.90;;
24743;SDS011;12844;52.110;5.548;2024-01-25T10:30:59;6.05;;;1.92;;
24743;SDS011;12844;52.110;5.548;2024-01-25T10:33:26;6.13;;;2.00;;
24743;SDS011;12844;52.110;5.548;2024-01-25T10:35:56;6.63;;;1.77;;
24743;SDS011;12844;52.110;5.548;2024-01-25T10:38:32;4.15;;;1.73;;
24743;SDS011;12844;52.110;5.548;2024-01-25T10:41:01;5.45;;;1.95;;
24743;SDS011;12844;52.110;5.548;2024-01-25T10:43:28;6.15;;;1.80;;
24743;SDS011;12844;52.110;5.548;2024-01-25T10:45:55;5.18;;;2.10;;
24743;SDS011;12844;52.110;5.548;2024-01-25T10:48:23;4.97;;;1.83;;
24743;SDS011;12844;52.110;5.548;2024-01-25T10:50:51;3.10;;;1.42;;
24743;SDS011;12844;52.110;5.548;2024-01-25T10:53:17;6.30;;;1.67;;
24743;SDS011;12844;52.110;5.548;2024-01-25T10:55:44;3.90;;;1.85;;
24743;SDS011;12844;52.110;5.548;2024-01-25T10:58:12;5.47;;;1.80;;
24743;SDS011;12844;52.110;5.548;2024-01-25T11:00:38;5.15;;;1.73;;
24743;SDS011;12844;52.110;5.548;2024-01-25T11:03:04;4.85;;;1.88;;
24743;SDS011;12844;52.110;5.548;2024-01-25T11:05:31;4.95;;;1.70;;
24743;SDS011;12844;52.110;5.548;2024-01-25T11:07:57;5.57;;;1.98;;
24743;SDS011;12844;52.110;5.548;2024-01-25T11:10:26;5.32;;;1.95;;
24743;SDS011;12844;52.110;5.548;2024-01-25T11:15:32;4.78;;;1.55;;
24743;SDS011;12844;52.110;5.548;2024-01-25T11:17:59;4.65;;;1.88;;
24743;SDS011;12844;52.110;5.548;2024-01-25T11:20:27;6.82;;;1.58;;
24743;SDS011;12844;52.110;5.548;2024-01-25T11:23:03;9.90;;;2.20;;
24743;SDS011;12844;52.110;5.548;2024-01-25T11:25:30;4.35;;;1.60;;
24743;SDS011;12844;52.110;5.548;2024-01-25T11:27:57;5.28;;;1.98;;
24743;SDS011;12844;52.110;5.548;2024-01-25T11:30:25;7.13;;;2.40;;
24743;SDS011;12844;52.110;5.548;2024-01-25T11:32:51;5.22;;;2.25;;
24743;SDS011;12844;52.110;5.548;2024-01-25T11:35:17;5.97;;;2.10;;
24743;SDS011;12844;52.110;5.548;2024-01-25T11:37:46;6.18;;;2.10;;
24743;SDS011;12844;52.110;5.548;2024-01-25T11:40:13;7.20;;;2.40;;
24743;SDS011;12844;52.110;5.548;2024-01-25T11:42:39;6.47;;;2.20;;
24743;SDS011;12844;52.110;5.548;2024-01-25T11:45:07;9.70;;;2.20;;
24743;SDS011;12844;52.110;5.548;2024-01-25T11:47:35;7.75;;;1.98;;
24743;SDS011;12844;52.110;5.548;2024-01-25T11:50:01;6.00;;;1.85;;
24743;SDS011;12844;52.110;5.548;2024-01-25T11:52:27;9.63;;;2.20;;
24743;SDS011;12844;52.110;5.548;2024-01-25T11:54:53;6.93;;;2.00;;
24743;SDS011;12844;52.110;5.548;2024-01-25T11:57:19;7.90;;;1.98;;
24743;SDS011;12844;52.110;5.548;2024-01-25T11:59:45;7.28;;;2.22;;
24743;SDS011;12844;52.110;5.548;2024-01-25T12:02:12;6.43;;;2.47;;
24743;SDS011;12844;52.110;5.548;2024-01-25T12:04:39;7.70;;;2.30;;
24743;SDS011;12844;52.110;5.548;2024-01-25T12:07:05;7.70;;;2.38;;
24743;SDS011;12844;52.110;5.548;2024-01-25T12:09:31;6.72;;;2.30;;
24743;SDS011;12844;52.110;5.548;2024-01-25T12:11:57;6.15;;;2.03;;
24743;SDS011;12844;52.110;5.548;2024-01-25T12:14:25;7.47;;;2.40;;
24743;SDS011;12844;52.110;5.548;2024-01-25T12:16:50;7.75;;;2.65;;
24743;SDS011;12844;52.110;5.548;2024-01-25T12:19:16;6.10;;;2.10;;
24743;SDS011;12844;52.110;5.548;2024-01-25T12:21:44;8.93;;;2.78;;
24743;SDS011;12844;52.110;5.548;2024-01-25T12:24:10;6.97;;;2.47;;
24743;SDS011;12844;52.110;5.548;2024-01-25T12:26:36;7.72;;;2.67;;
24743;SDS011;12844;52.110;5.548;2024-01-25T12:29:02;6.97;;;2.00;;
24743;SDS011;12844;52.110;5.548;2024-01-25T12:31:28;8.00;;;2.40;;
24743;SDS011;12844;52.110;5.548;2024-01-25T12:33:53;9.90;;;2.63;;
24743;SDS011;12844;52.110;5.548;2024-01-25T12:36:19;5.60;;;2.33;;
24743;SDS011;12844;52.110;5.548;2024-01-25T12:38:45;5.28;;;2.10;;
24743;SDS011;12844;52.110;5.548;2024-01-25T12:41:10;5.22;;;1.88;;
24743;SDS011;12844;52.110;5.548;2024-01-25T12:43:36;7.50;;;2.35;;
24743;SDS011;12844;52.110;5.548;2024-01-25T12:46:02;10.55;;;2.72;;
24743;SDS011;12844;52.110;5.548;2024-01-25T12:48:27;8.48;;;2.95;;
24743;SDS011;12844;52.110;5.548;2024-01-25T12:50:53;10.27;;;2.78;;
24743;SDS011;12844;52.110;5.548;2024-01-25T12:53:18;9.35;;;2.55;;
24743;SDS011;12844;52.110;5.548;2024-01-25T12:55:44;10.93;;;3.15;;
24743;SDS011;12844;52.110;5.548;2024-01-25T12:58:10;12.40;;;3.78;;
24743;SDS011;12844;52.110;5.548;2024-01-25T13:00:35;9.90;;;2.97;;
24743;SDS011;12844;52.110;5.548;2024-01-25T13:03:01;7.55;;;2.92;;
24743;SDS011;12844;52.110;5.548;2024-01-25T13:05:27;9.82;;;2.95;;
24743;SDS011;12844;52.110;5.548;2024-01-25T13:07:52;9.13;;;3.15;;
24743;SDS011;12844;52.110;5.548;2024-01-25T13:10:18;9.13;;;2.67;;
24743;SDS011;12844;52.110;5.548;2024-01-25T13:12:43;8.45;;;3.03;;
24743;SDS011;12844;52.110;5.548;2024-01-25T13:15:09;10.00;;;3.00;;
24743;SDS011;12844;52.110;5.548;2024-01-25T13:17:35;8.60;;;2.75;;
24743;SDS011;12844;52.110;5.548;2024-01-25T13:20:01;7.75;;;2.80;;
24743;SDS011;12844;52.110;5.548;2024-01-25T13:22:28;11.30;;;3.13;;
24743;SDS011;12844;52.110;5.548;2024-01-25T13:24:55;6.80;;;2.65;;
24743;SDS011;12844;52.110;5.548;2024-01-25T13:27:20;9.40;;;2.80;;
24743;SDS011;12844;52.110;5.548;2024-01-25T13:29:46;8.10;;;2.75;;
24743;SDS011;12844;52.110;5.548;2024-01-25T13:32:11;7.50;;;2.90;;
24743;SDS011;12844;52.110;5.548;2024-01-25T13:34:37;9.85;;;3.10;;
24743;SDS011;12844;52.110;5.548;2024-01-25T13:37:02;10.30;;;2.90;;
24743;SDS011;12844;52.110;5.548;2024-01-25T13:39:28;7.50;;;2.78;;
24743;SDS011;12844;52.110;5.548;2024-01-25T13:41:54;10.60;;;3.08;;
24743;SDS011;12844;52.110;5.548;2024-01-25T13:44:21;9.13;;;3.45;;
24743;SDS011;12844;52.110;5.548;2024-01-25T13:46:47;9.35;;;3.35;;
24743;SDS011;12844;52.110;5.548;2024-01-25T13:49:12;8.27;;;2.85;;
24743;SDS011;12844;52.110;5.548;2024-01-25T13:51:38;7.35;;;3.00;;
24743;SDS011;12844;52.110;5.548;2024-01-25T13:54:04;9.23;;;3.20;;
24743;SDS011;12844;52.110;5.548;2024-01-25T13:56:29;12.68;;;3.63;;
24743;SDS011;12844;52.110;5.548;2024-01-25T13:58:55;7.70;;;2.67;;
24743;SDS011;12844;52.110;5.548;2024-01-25T14:01:20;8.25;;;2.75;;
24743;SDS011;12844;52.110;5.548;2024-01-25T14:03:46;9.23;;;3.17;;
24743;SDS011;12844;52.110;5.548;2024-01-25T14:06:12;11.90;;;3.10;;
24743;SDS011;12844;52.110;5.548;2024-01-25T14:08:37;8.55;;;3.30;;
24743;SDS011;12844;52.110;5.548;2024-01-25T14:11:03;8.90;;;2.72;;
24743;SDS011;12844;52.110;5.548;2024-01-25T14:13:30;8.88;;;3.40;;
24743;SDS011;12844;52.110;5.548;2024-01-25T14:15:56;7.07;;;3.22;;
24743;SDS011;12844;52.110;5.548;2024-01-25T14:18:23;8.52;;;3.30;;
24743;SDS011;12844;52.110;5.548;2024-01-25T14:20:49;8.63;;;3.17;;
24743;SDS011;12844;52.110;5.548;2024-01-25T14:23:15;7.68;;;3.00;;
24743;SDS011;12844;52.110;5.548;2024-01-25T14:25:40;8.68;;;3.10;;
24743;SDS011;12844;52.110;5.548;2024-01-25T14:28:06;7.03;;;2.78;;
24743;SDS011;12844;52.110;5.548;2024-01-25T14:30:31;6.43;;;2.83;;
24743;SDS011;12844;52.110;5.548;2024-01-25T14:32:57;7.53;;;2.95;;
24743;SDS011;12844;52.110;5.548;2024-01-25T14:35:23;9.60;;;3.67;;
24743;SDS011;12844;52.110;5.548;2024-01-25T14:37:56;7.57;;;3.08;;
24743;SDS011;12844;52.110;5.548;2024-01-25T14:40:22;6.53;;;2.75;;
24743;SDS011;12844;52.110;5.548;2024-01-25T14:42:49;8.48;;;3.10;;
24743;SDS011;12844;52.110;5.548;2024-01-25T14:45:15;7.93;;;2.95;;
24743;SDS011;12844;52.110;5.548;2024-01-25T14:47:40;7.55;;;3.05;;
24743;SDS011;12844;52.110;5.548;2024-01-25T14:50:06;10.13;;;3.20;;
24743;SDS011;12844;52.110;5.548;2024-01-25T14:52:32;8.60;;;3.50;;
24743;SDS011;12844;52.110;5.548;2024-01-25T14:54:59;8.60;;;3.15;;
24743;SDS011;12844;52.110;5.548;2024-01-25T14:57:26;8.10;;;3.10;;
24743;SDS011;12844;52.110;5.548;2024-01-25T14:59:51;11.32;;;3.22;;
24743;SDS011;12844;52.110;5.548;2024-01-25T15:02:17;7.00;;;2.90;;
24743;SDS011;12844;52.110;5.548;2024-01-25T15:04:42;8.25;;;3.20;;
24743;SDS011;12844;52.110;5.548;2024-01-25T15:07:08;7.70;;;2.97;;
24743;SDS011;12844;52.110;5.548;2024-01-25T15:09:33;10.30;;;3.30;;
24743;SDS011;12844;52.110;5.548;2024-01-25T15:11:59;6.78;;;3.10;;
24743;SDS011;12844;52.110;5.548;2024-01-25T15:14:24;9.30;;;3.42;;
24743;SDS011;12844;52.110;5.548;2024-01-25T15:16:50;10.55;;;3.70;;
24743;SDS011;12844;52.110;5.548;2024-01-25T15:19:15;7.25;;;3.17;;
24743;SDS011;12844;52.110;5.548;2024-01-25T15:21:41;7.53;;;2.97;;
24743;SDS011;12844;52.110;5.548;2024-01-25T15:24:07;11.23;;;3.13;;